sensor_id;sensor_type;location;lat;lon;timestamp;P1;durP1;ratioP1;P2;durP2;ratioP2
34982;SDS011;21187;50.976;13.720;2023-05-01T00:05:00;22.13;;;8.95;;
34982;SDS011;21187;50.976;13.720;2023-05-01T00:10:03;19.75;;;9.60;;
34982;SDS011;21187;50.976;13.720;2023-05-01T00:15:05;27.63;;;10.05;;
34982;SDS011;21187;50.976;13.720;2023-05-01T00:20:08;22.50;;;10.27;;
34982;SDS011;21187;50.976;13.720;2023-05-01T00:25:10;21.67;;;8.88;;
34982;SDS011;21187;50.976;13.720;2023-05-01T00:30:12;19.52;;;9.52;;
34982;SDS011;21187;50.976;13.720;2023-05-01T00:35:14;27.05;;;8.88;;
34982;SDS011;21187;50.976;13.720;2023-05-01T00:40:16;16.70;;;8.85;;
34982;SDS011;21187;50.976;13.720;2023-05-01T00:45:19;27.55;;;8.65;;
34982;SDS011;21187;50.976;13.720;2023-05-01T00:50:20;19.83;;;9.13;;
34982;SDS011;21187;50.976;13.720;2023-05-01T00:55:23;24.23;;;9.77;;
34982;SDS011;21187;50.976;13.720;2023-05-01T01:00:25;23.08;;;10.38;;
34982;SDS011;21187;50.976;13.720;2023-05-01T01:05:27;27.08;;;9.43;;
34982;SDS011;21187;50.976;13.720;2023-05-01T01:10:52;27.08;;;9.73;;
34982;SDS011;21187;50.976;13.720;2023-05-01T01:16:17;21.63;;;11.00;;
34982;SDS011;21187;50.976;13.720;2023-05-01T01:37:28;27.67;;;10.38;;
34982;SDS011;21187;50.976;13.720;2023-05-01T01:42:45;31.25;;;10.75;;
34982;SDS011;21187;50.976;13.720;2023-05-01T01:47:52;30.80;;;12.27;;
34982;SDS011;21187;50.976;13.720;2023-05-01T01:52:57;32.42;;;12.20;;
34982;SDS011;21187;50.976;13.720;2023-05-01T01:58:02;24.52;;;11.52;;
34982;SDS011;21187;50.976;13.720;2023-05-01T02:03:05;28.70;;;11.95;;
34982;SDS011;21187;50.976;13.720;2023-05-01T02:08:10;35.25;;;11.85;;
34982;SDS011;21187;50.976;13.720;2023-05-01T02:13:15;29.63;;;11.55;;
34982;SDS011;21187;50.976;13.720;2023-05-01T02:18:18;32.75;;;11.60;;
34982;SDS011;21187;50.976;13.720;2023-05-01T02:23:22;28.35;;;11.48;;
34982;SDS011;21187;50.976;13.720;2023-05-01T02:28:25;31.35;;;12.52;;
34982;SDS011;21187;50.976;13.720;2023-05-01T02:33:30;32.63;;;11.40;;
34982;SDS011;21187;50.976;13.720;2023-05-01T02:38:31;34.15;;;12.50;;
34982;SDS011;21187;50.976;13.720;2023-05-01T02:43:33;30.75;;;12.55;;
34982;SDS011;21187;50.976;13.720;2023-05-01T02:48:37;30.63;;;13.02;;
34982;SDS011;21187;50.976;13.720;2023-05-01T02:53:40;28.42;;;13.27;;
34982;SDS011;21187;50.976;13.720;2023-05-01T02:58:51;29.50;;;12.90;;
34982;SDS011;21187;50.976;13.720;2023-05-01T03:03:53;29.25;;;13.13;;
34982;SDS011;21187;50.976;13.720;2023-05-01T03:08:55;26.70;;;13.02;;
34982;SDS011;21187;50.976;13.720;2023-05-01T03:13:57;36.47;;;13.07;;
34982;SDS011;21187;50.976;13.720;2023-05-01T03:18:59;37.25;;;14.30;;
34982;SDS011;21187;50.976;13.720;2023-05-01T03:24:01;34.60;;;13.05;;
34982;SDS011;21187;50.976;13.720;2023-05-01T03:29:04;34.60;;;14.80;;
34982;SDS011;21187;50.976;13.720;2023-05-01T03:34:06;33.05;;;14.18;;
34982;SDS011;21187;50.976;13.720;2023-05-01T03:39:08;35.55;;;15.25;;
34982;SDS011;21187;50.976;13.720;2023-05-01T03:44:36;34.75;;;13.95;;
34982;SDS011;21187;50.976;13.720;2023-05-01T03:49:37;34.47;;;14.40;;
34982;SDS011;21187;50.976;13.720;2023-05-01T03:54:39;35.65;;;14.73;;
34982;SDS011;21187;50.976;13.720;2023-05-01T04:00:08;33.38;;;13.45;;
34982;SDS011;21187;50.976;13.720;2023-05-01T04:05:19;42.17;;;15.23;;
34982;SDS011;21187;50.976;13.720;2023-05-01T04:10:30;31.58;;;13.65;;
34982;SDS011;21187;50.976;13.720;2023-05-01T04:15:37;32.20;;;13.65;;
34982;SDS011;21187;50.976;13.720;2023-05-01T04:20:39;38.28;;;11.85;;
34982;SDS011;21187;50.976;13.720;2023-05-01T04:25:41;29.92;;;12.55;;
34982;SDS011;21187;50.976;13.720;2023-05-01T04:30:46;30.65;;;12.52;;
34982;SDS011;21187;50.976;13.720;2023-05-01T04:35:48;34.58;;;13.35;;
34982;SDS011;21187;50.976;13.720;2023-05-01T04:40:50;27.58;;;12.43;;
34982;SDS011;21187;50.976;13.720;2023-05-01T04:45:53;27.15;;;11.27;;
34982;SDS011;21187;50.976;13.720;2023-05-01T04:50:55;26.58;;;12.40;;
34982;SDS011;21187;50.976;13.720;2023-05-01T04:56:00;26.60;;;11.75;;
34982;SDS011;21187;50.976;13.720;2023-05-01T05:01:04;26.13;;;11.55;;
34982;SDS011;21187;50.976;13.720;2023-05-01T05:06:06;24.10;;;11.82;;
34982;SDS011;21187;50.976;13.720;2023-05-01T05:11:09;33.15;;;12.18;;
34982;SDS011;21187;50.976;13.720;2023-05-01T05:16:31;28.00;;;12.25;;
34982;SDS011;21187;50.976;13.720;2023-05-01T05:21:33;29.38;;;12.18;;
34982;SDS011;21187;50.976;13.720;2023-05-01T05:26:36;34.85;;;12.60;;
34982;SDS011;21187;50.976;13.720;2023-05-01T05:31:39;30.05;;;12.43;;
34982;SDS011;21187;50.976;13.720;2023-05-01T05:36:41;24.75;;;11.27;;
34982;SDS011;21187;50.976;13.720;2023-05-01T05:41:43;28.10;;;11.05;;
34982;SDS011;21187;50.976;13.720;2023-05-01T05:46:45;27.02;;;11.07;;
34982;SDS011;21187;50.976;13.720;2023-05-01T05:51:55;24.33;;;11.40;;
34982;SDS011;21187;50.976;13.720;2023-05-01T05:56:58;33.45;;;10.75;;
34982;SDS011;21187;50.976;13.720;2023-05-01T06:02:00;25.85;;;11.45;;
34982;SDS011;21187;50.976;13.720;2023-05-01T06:07:03;26.00;;;10.43;;
34982;SDS011;21187;50.976;13.720;2023-05-01T06:12:06;25.55;;;9.88;;
34982;SDS011;21187;50.976;13.720;2023-05-01T06:17:08;24.80;;;9.48;;
34982;SDS011;21187;50.976;13.720;2023-05-01T06:22:10;21.95;;;9.60;;
34982;SDS011;21187;50.976;13.720;2023-05-01T06:27:23;25.85;;;9.52;;
34982;SDS011;21187;50.976;13.720;2023-05-01T06:32:25;22.75;;;9.32;;
34982;SDS011;21187;50.976;13.720;2023-05-01T06:37:27;22.30;;;9.18;;
34982;SDS011;21187;50.976;13.720;2023-05-01T06:42:29;20.52;;;8.95;;
34982;SDS011;21187;50.976;13.720;2023-05-01T06:47:35;18.77;;;8.90;;
34982;SDS011;21187;50.976;13.720;2023-05-01T06:52:36;20.08;;;8.73;;
34982;SDS011;21187;50.976;13.720;2023-05-01T06:57:40;17.98;;;7.85;;
34982;SDS011;21187;50.976;13.720;2023-05-01T07:02:43;15.25;;;8.13;;
34982;SDS011;21187;50.976;13.720;2023-05-01T07:07:47;15.18;;;8.00;;
34982;SDS011;21187;50.976;13.720;2023-05-01T07:13:01;15.40;;;7.55;;
34982;SDS011;21187;50.976;13.720;2023-05-01T07:18:03;16.90;;;7.25;;
34982;SDS011;21187;50.976;13.720;2023-05-01T07:23:06;18.02;;;5.93;;
34982;SDS011;21187;50.976;13.720;2023-05-01T07:28:10;8.98;;;4.32;;
34982;SDS011;21187;50.976;13.720;2023-05-01T07:33:12;9.80;;;4.45;;
34982;SDS011;21187;50.976;13.720;2023-05-01T07:38:14;12.65;;;4.60;;
34982;SDS011;21187;50.976;13.720;2023-05-01T07:43:17;10.50;;;4.45;;
34982;SDS011;21187;50.976;13.720;2023-05-01T07:48:19;12.07;;;4.43;;
34982;SDS011;21187;50.976;13.720;2023-05-01T07:53:21;10.15;;;4.20;;
34982;SDS011;21187;50.976;13.720;2023-05-01T07:58:23;9.82;;;4.13;;
34982;SDS011;21187;50.976;13.720;2023-05-01T08:03:26;10.48;;;4.45;;
34982;SDS011;21187;50.976;13.720;2023-05-01T08:08:30;10.70;;;4.05;;
34982;SDS011;21187;50.976;13.720;2023-05-01T08:13:31;12.70;;;4.32;;
34982;SDS011;21187;50.976;13.720;2023-05-01T08:18:33;11.13;;;4.35;;
34982;SDS011;21187;50.976;13.720;2023-05-01T08:23:35;13.32;;;4.57;;
34982;SDS011;21187;50.976;13.720;2023-05-01T08:28:37;10.90;;;4.22;;
34982;SDS011;21187;50.976;13.720;2023-05-01T08:33:39;7.53;;;3.50;;
34982;SDS011;21187;50.976;13.720;2023-05-01T08:38:44;9.82;;;4.30;;
34982;SDS011;21187;50.976;13.720;2023-05-01T08:43:47;9.75;;;4.20;;
34982;SDS011;21187;50.976;13.720;2023-05-01T08:48:49;9.88;;;4.15;;
34982;SDS011;21187;50.976;13.720;2023-05-01T08:53:53;8.88;;;4.10;;
34982;SDS011;21187;50.976;13.720;2023-05-01T08:58:59;11.57;;;4.05;;
34982;SDS011;21187;50.976;13.720;2023-05-01T09:04:04;12.18;;;4.00;;
34982;SDS011;21187;50.976;13.720;2023-05-01T09:09:07;10.95;;;4.43;;
34982;SDS011;21187;50.976;13.720;2023-05-01T09:14:09;14.23;;;4.43;;
34982;SDS011;21187;50.976;13.720;2023-05-01T09:19:11;13.35;;;4.82;;
34982;SDS011;21187;50.976;13.720;2023-05-01T09:24:13;19.08;;;4.82;;
34982;SDS011;21187;50.976;13.720;2023-05-01T09:29:35;11.98;;;4.82;;
34982;SDS011;21187;50.976;13.720;2023-05-01T09:34:47;11.13;;;4.32;;
34982;SDS011;21187;50.976;13.720;2023-05-01T09:39:59;11.32;;;4.80;;
34982;SDS011;21187;50.976;13.720;2023-05-01T09:45:12;12.25;;;4.95;;
34982;SDS011;21187;50.976;13.720;2023-05-01T09:50:28;9.48;;;4.05;;
34982;SDS011;21187;50.976;13.720;2023-05-01T09:55:32;12.05;;;5.15;;
34982;SDS011;21187;50.976;13.720;2023-05-01T10:00:47;12.13;;;4.43;;
34982;SDS011;21187;50.976;13.720;2023-05-01T10:05:52;13.25;;;4.35;;
34982;SDS011;21187;50.976;13.720;2023-05-01T10:11:03;12.73;;;4.28;;
34982;SDS011;21187;50.976;13.720;2023-05-01T10:16:05;9.82;;;4.57;;
34982;SDS011;21187;50.976;13.720;2023-05-01T10:21:08;11.27;;;4.35;;
34982;SDS011;21187;50.976;13.720;2023-05-01T10:26:12;10.57;;;4.22;;
34982;SDS011;21187;50.976;13.720;2023-05-01T10:31:14;9.07;;;3.90;;
34982;SDS011;21187;50.976;13.720;2023-05-01T10:36:31;8.60;;;4.47;;
34982;SDS011;21187;50.976;13.720;2023-05-01T10:53:14;13.90;;;3.78;;
34982;SDS011;21187;50.976;13.720;2023-05-01T10:58:53;8.25;;;3.88;;
34982;SDS011;21187;50.976;13.720;2023-05-01T11:08:53;5.68;;;3.35;;
34982;SDS011;21187;50.976;13.720;2023-05-01T11:13:59;9.98;;;3.67;;
34982;SDS011;21187;50.976;13.720;2023-05-01T11:19:43;6.15;;;3.28;;
34982;SDS011;21187;50.976;13.720;2023-05-01T11:24:39;11.33;;;4.03;;
34982;SDS011;21187;50.976;13.720;2023-05-01T11:29:42;11.93;;;3.13;;
34982;SDS011;21187;50.976;13.720;2023-05-01T11:34:45;16.05;;;3.45;;
34982;SDS011;21187;50.976;13.720;2023-05-01T11:39:50;9.30;;;2.90;;
34982;SDS011;21187;50.976;13.720;2023-05-01T11:45:07;5.88;;;2.70;;
34982;SDS011;21187;50.976;13.720;2023-05-01T11:50:13;9.20;;;3.10;;
34982;SDS011;21187;50.976;13.720;2023-05-01T11:55:15;6.07;;;2.60;;
34982;SDS011;21187;50.976;13.720;2023-05-01T12:00:38;5.63;;;2.50;;
34982;SDS011;21187;50.976;13.720;2023-05-01T12:05:42;8.70;;;2.60;;
34982;SDS011;21187;50.976;13.720;2023-05-01T12:10:49;5.63;;;2.45;;
34982;SDS011;21187;50.976;13.720;2023-05-01T12:15:54;6.68;;;2.13;;
34982;SDS011;21187;50.976;13.720;2023-05-01T12:20:56;6.13;;;2.40;;
34982;SDS011;21187;50.976;13.720;2023-05-01T12:25:59;5.95;;;2.30;;
34982;SDS011;21187;50.976;13.720;2023-05-01T12:31:01;5.90;;;1.88;;
34982;SDS011;21187;50.976;13.720;2023-05-01T12:36:09;5.68;;;1.85;;
34982;SDS011;21187;50.976;13.720;2023-05-01T12:41:12;4.80;;;1.90;;
34982;SDS011;21187;50.976;13.720;2023-05-01T12:46:14;9.27;;;2.13;;
34982;SDS011;21187;50.976;13.720;2023-05-01T12:51:17;3.90;;;1.60;;
34982;SDS011;21187;50.976;13.720;2023-05-01T12:56:23;5.60;;;2.10;;
34982;SDS011;21187;50.976;13.720;2023-05-01T13:01:26;6.65;;;1.88;;
34982;SDS011;21187;50.976;13.720;2023-05-01T13:06:32;5.53;;;2.20;;
34982;SDS011;21187;50.976;13.720;2023-05-01T13:11:34;6.00;;;1.90;;
34982;SDS011;21187;50.976;13.720;2023-05-01T13:16:43;5.60;;;2.30;;
34982;SDS011;21187;50.976;13.720;2023-05-01T13:21:48;10.65;;;2.08;;
34982;SDS011;21187;50.976;13.720;2023-05-01T13:26:56;6.97;;;1.80;;
34982;SDS011;21187;50.976;13.720;2023-05-01T13:32:04;2.90;;;1.50;;
34982;SDS011;21187;50.976;13.720;2023-05-01T13:37:08;2.42;;;1.88;;
34982;SDS011;21187;50.976;13.720;2023-05-01T13:42:21;6.40;;;1.90;;
34982;SDS011;21187;50.976;13.720;2023-05-01T13:47:26;7.70;;;1.50;;
34982;SDS011;21187;50.976;13.720;2023-05-01T13:52:28;3.85;;;1.70;;
34982;SDS011;21187;50.976;13.720;2023-05-01T13:57:30;6.65;;;1.50;;
34982;SDS011;21187;50.976;13.720;2023-05-01T14:02:32;6.07;;;1.85;;
34982;SDS011;21187;50.976;13.720;2023-05-01T14:07:34;3.70;;;1.45;;
34982;SDS011;21187;50.976;13.720;2023-05-01T14:12:45;3.20;;;1.42;;
34982;SDS011;21187;50.976;13.720;2023-05-01T14:17:47;4.07;;;1.63;;
34982;SDS011;21187;50.976;13.720;2023-05-01T14:22:50;4.47;;;1.95;;
34982;SDS011;21187;50.976;13.720;2023-05-01T14:27:55;8.45;;;1.75;;
34982;SDS011;21187;50.976;13.720;2023-05-01T14:33:05;3.03;;;1.85;;
34982;SDS011;21187;50.976;13.720;2023-05-01T14:38:09;6.07;;;2.13;;
34982;SDS011;21187;50.976;13.720;2023-05-01T14:43:16;7.93;;;2.00;;
34982;SDS011;21187;50.976;13.720;2023-05-01T14:48:21;6.25;;;2.55;;
34982;SDS011;21187;50.976;13.720;2023-05-01T14:53:24;6.55;;;2.50;;
34982;SDS011;21187;50.976;13.720;2023-05-01T14:58:27;7.50;;;2.45;;
34982;SDS011;21187;50.976;13.720;2023-05-01T15:03:29;11.07;;;4.20;;
34982;SDS011;21187;50.976;13.720;2023-05-01T15:08:32;15.55;;;4.50;;
34982;SDS011;21187;50.976;13.720;2023-05-01T15:13:34;8.43;;;3.22;;
34982;SDS011;21187;50.976;13.720;2023-05-01T15:18:37;10.77;;;3.38;;
34982;SDS011;21187;50.976;13.720;2023-05-01T15:23:39;7.07;;;3.00;;
34982;SDS011;21187;50.976;13.720;2023-05-01T15:28:45;6.13;;;2.28;;
34982;SDS011;21187;50.976;13.720;2023-05-01T15:33:47;5.88;;;2.35;;
34982;SDS011;21187;50.976;13.720;2023-05-01T15:38:49;9.02;;;2.80;;
34982;SDS011;21187;50.976;13.720;2023-05-01T15:43:51;6.50;;;2.65;;
34982;SDS011;21187;50.976;13.720;2023-05-01T15:48:53;8.20;;;3.13;;
34982;SDS011;21187;50.976;13.720;2023-05-01T15:53:54;11.13;;;3.05;;
34982;SDS011;21187;50.976;13.720;2023-05-01T15:59:00;5.45;;;2.70;;
34982;SDS011;21187;50.976;13.720;2023-05-01T16:04:02;4.40;;;2.70;;
34982;SDS011;21187;50.976;13.720;2023-05-01T16:09:05;4.85;;;2.63;;
34982;SDS011;21187;50.976;13.720;2023-05-01T16:14:07;4.93;;;2.33;;
34982;SDS011;21187;50.976;13.720;2023-05-01T16:19:09;9.77;;;2.55;;
34982;SDS011;21187;50.976;13.720;2023-05-01T16:24:16;5.50;;;2.35;;
34982;SDS011;21187;50.976;13.720;2023-05-01T16:29:18;12.63;;;3.58;;
34982;SDS011;21187;50.976;13.720;2023-05-01T16:34:22;6.85;;;2.83;;
34982;SDS011;21187;50.976;13.720;2023-05-01T16:39:25;8.93;;;2.95;;
34982;SDS011;21187;50.976;13.720;2023-05-01T16:44:27;10.45;;;3.75;;
34982;SDS011;21187;50.976;13.720;2023-05-01T16:49:30;12.38;;;6.30;;
34982;SDS011;21187;50.976;13.720;2023-05-01T16:54:32;6.78;;;3.22;;
34982;SDS011;21187;50.976;13.720;2023-05-01T16:59:36;7.80;;;3.20;;
34982;SDS011;21187;50.976;13.720;2023-05-01T17:04:39;10.73;;;6.68;;
34982;SDS011;21187;50.976;13.720;2023-05-01T17:09:41;9.63;;;4.18;;
34982;SDS011;21187;50.976;13.720;2023-05-01T17:14:43;8.10;;;2.88;;
34982;SDS011;21187;50.976;13.720;2023-05-01T17:19:45;4.90;;;2.47;;
34982;SDS011;21187;50.976;13.720;2023-05-01T17:24:46;4.22;;;2.13;;
34982;SDS011;21187;50.976;13.720;2023-05-01T17:29:48;9.23;;;2.80;;
34982;SDS011;21187;50.976;13.720;2023-05-01T17:34:50;5.38;;;2.40;;
34982;SDS011;21187;50.976;13.720;2023-05-01T17:39:52;10.65;;;2.40;;
34982;SDS011;21187;50.976;13.720;2023-05-01T17:44:54;70.60;;;24.80;;
34982;SDS011;21187;50.976;13.720;2023-05-01T17:49:56;40.42;;;14.98;;
34982;SDS011;21187;50.976;13.720;2023-05-01T17:54:58;15.75;;;4.75;;
34982;SDS011;21187;50.976;13.720;2023-05-01T18:00:00;11.55;;;3.38;;
34982;SDS011;21187;50.976;13.720;2023-05-01T18:05:12;7.03;;;3.20;;
34982;SDS011;21187;50.976;13.720;2023-05-01T18:10:14;7.60;;;2.92;;
34982;SDS011;21187;50.976;13.720;2023-05-01T18:15:17;6.18;;;2.85;;
34982;SDS011;21187;50.976;13.720;2023-05-01T18:20:23;7.65;;;3.17;;
34982;SDS011;21187;50.976;13.720;2023-05-01T18:25:25;6.88;;;2.95;;
34982;SDS011;21187;50.976;13.720;2023-05-01T18:30:28;9.20;;;3.20;;
34982;SDS011;21187;50.976;13.720;2023-05-01T18:35:30;6.28;;;2.75;;
34982;SDS011;21187;50.976;13.720;2023-05-01T18:40:32;5.70;;;3.10;;
34982;SDS011;21187;50.976;13.720;2023-05-01T18:45:34;8.65;;;3.03;;
34982;SDS011;21187;50.976;13.720;2023-05-01T18:50:36;6.25;;;2.67;;
34982;SDS011;21187;50.976;13.720;2023-05-01T18:55:38;5.25;;;2.53;;
34982;SDS011;21187;50.976;13.720;2023-05-01T19:00:40;6.13;;;2.78;;
34982;SDS011;21187;50.976;13.720;2023-05-01T19:05:41;5.93;;;3.05;;
34982;SDS011;21187;50.976;13.720;2023-05-01T19:10:44;10.52;;;3.63;;
34982;SDS011;21187;50.976;13.720;2023-05-01T19:15:45;6.60;;;3.25;;
34982;SDS011;21187;50.976;13.720;2023-05-01T19:20:48;6.93;;;3.92;;
34982;SDS011;21187;50.976;13.720;2023-05-01T19:25:49;13.35;;;4.60;;
34982;SDS011;21187;50.976;13.720;2023-05-01T19:30:51;6.55;;;3.10;;
34982;SDS011;21187;50.976;13.720;2023-05-01T19:35:53;7.60;;;3.47;;
34982;SDS011;21187;50.976;13.720;2023-05-01T19:40:56;7.20;;;3.65;;
34982;SDS011;21187;50.976;13.720;2023-05-01T19:45:57;6.47;;;3.13;;
34982;SDS011;21187;50.976;13.720;2023-05-01T19:50:59;6.50;;;3.13;;
34982;SDS011;21187;50.976;13.720;2023-05-01T19:56:01;5.07;;;3.10;;
34982;SDS011;21187;50.976;13.720;2023-05-01T20:01:03;9.38;;;4.13;;
34982;SDS011;21187;50.976;13.720;2023-05-01T20:06:08;6.05;;;3.22;;
34982;SDS011;21187;50.976;13.720;2023-05-01T20:11:10;9.48;;;4.30;;
34982;SDS011;21187;50.976;13.720;2023-05-01T20:16:12;8.50;;;3.92;;
34982;SDS011;21187;50.976;13.720;2023-05-01T20:21:14;13.05;;;4.40;;
34982;SDS011;21187;50.976;13.720;2023-05-01T20:26:16;8.32;;;3.85;;
34982;SDS011;21187;50.976;13.720;2023-05-01T20:31:19;7.72;;;4.32;;
34982;SDS011;21187;50.976;13.720;2023-05-01T20:36:21;9.80;;;3.78;;
34982;SDS011;21187;50.976;13.720;2023-05-01T20:41:25;15.27;;;4.72;;
34982;SDS011;21187;50.976;13.720;2023-05-01T20:46:29;10.00;;;5.43;;
34982;SDS011;21187;50.976;13.720;2023-05-01T20:51:31;10.15;;;5.22;;
34982;SDS011;21187;50.976;13.720;2023-05-01T20:56:33;11.15;;;5.45;;
34982;SDS011;21187;50.976;13.720;2023-05-01T21:01:35;14.90;;;5.47;;
34982;SDS011;21187;50.976;13.720;2023-05-01T21:06:37;12.32;;;5.88;;
34982;SDS011;21187;50.976;13.720;2023-05-01T21:11:39;12.85;;;6.65;;
34982;SDS011;21187;50.976;13.720;2023-05-01T21:16:41;12.48;;;6.00;;
34982;SDS011;21187;50.976;13.720;2023-05-01T21:21:43;14.35;;;6.00;;
34982;SDS011;21187;50.976;13.720;2023-05-01T21:26:45;12.15;;;6.45;;
34982;SDS011;21187;50.976;13.720;2023-05-01T21:31:47;11.82;;;6.13;;
34982;SDS011;21187;50.976;13.720;2023-05-01T21:36:49;9.75;;;5.03;;
34982;SDS011;21187;50.976;13.720;2023-05-01T21:41:51;13.73;;;5.95;;
34982;SDS011;21187;50.976;13.720;2023-05-01T21:46:53;13.23;;;5.60;;
34982;SDS011;21187;50.976;13.720;2023-05-01T21:51:57;12.02;;;5.63;;
34982;SDS011;21187;50.976;13.720;2023-05-01T21:57:00;14.50;;;5.70;;
34982;SDS011;21187;50.976;13.720;2023-05-01T22:02:09;11.05;;;6.20;;
34982;SDS011;21187;50.976;13.720;2023-05-01T22:07:12;11.25;;;5.63;;
34982;SDS011;21187;50.976;13.720;2023-05-01T22:12:14;15.05;;;7.63;;
34982;SDS011;21187;50.976;13.720;2023-05-01T22:17:16;15.05;;;7.28;;
34982;SDS011;21187;50.976;13.720;2023-05-01T22:22:24;16.67;;;7.53;;
34982;SDS011;21187;50.976;13.720;2023-05-01T22:27:26;15.05;;;7.88;;
34982;SDS011;21187;50.976;13.720;2023-05-01T22:32:28;12.57;;;6.60;;
34982;SDS011;21187;50.976;13.720;2023-05-01T22:37:30;15.50;;;7.70;;
34982;SDS011;21187;50.976;13.720;2023-05-01T22:42:31;14.07;;;7.55;;
34982;SDS011;21187;50.976;13.720;2023-05-01T22:47:33;15.77;;;7.43;;
34982;SDS011;21187;50.976;13.720;2023-05-01T22:52:35;16.58;;;8.02;;
34982;SDS011;21187;50.976;13.720;2023-05-01T22:57:37;15.82;;;7.80;;
34982;SDS011;21187;50.976;13.720;2023-05-01T23:02:39;18.98;;;7.75;;
34982;SDS011;21187;50.976;13.720;2023-05-01T23:07:41;12.35;;;7.18;;
34982;SDS011;21187;50.976;13.720;2023-05-01T23:12:44;15.98;;;8.27;;
34982;SDS011;21187;50.976;13.720;2023-05-01T23:17:46;18.20;;;7.40;;
34982;SDS011;21187;50.976;13.720;2023-05-01T23:22:48;13.77;;;6.97;;
34982;SDS011;21187;50.976;13.720;2023-05-01T23:27:52;15.68;;;7.70;;
34982;SDS011;21187;50.976;13.720;2023-05-01T23:32:55;17.13;;;7.53;;
34982;SDS011;21187;50.976;13.720;2023-05-01T23:37:59;17.60;;;7.30;;
34982;SDS011;21187;50.976;13.720;2023-05-01T23:43:01;12.13;;;7.10;;
34982;SDS011;21187;50.976;13.720;2023-05-01T23:48:03;16.60;;;7.32;;
34982;SDS011;21187;50.976;13.720;2023-05-01T23:53:06;13.18;;;7.07;;
34982;SDS011;21187;50.976;13.720;2023-05-01T23:58:08;14.88;;;7.05;;
